MMAS/AGU METAR and TAF weather

Enter ICAO airport designator
Station Type Date Time Source
MMAS METAR 2020/10/29 16:50 UTC NOAA

MMAS 291650Z 01018KT 9SM FEW200 23/M02 A3030 RMK 8/008 HZY


Station Type Date Time Source
MMAS Decoded METAR 2020/10/29 16:50 UTC NOAA

Aguascalientes, Ags., Mexico (MMAS) 21-53N 102-18W
Oct 29, 2020 - 12:50 PM EDT / 2020.10.29 1650 UTC
Wind: from the N (010 degrees) at 21 MPH (18 KT):0
Visibility: 9 mile(s):0
Sky conditions: mostly clear
Temperature: 73 F (23 C)
Dew Point: 28 F (-2 C)
Relative Humidity: 18%
Pressure (altimeter): 30.3 in. Hg (1026 hPa)
ob: MMAS 291650Z 01018KT 9SM FEW200 23/M02 A3030 RMK 8/008 HZY
cycle: 17

Station Type Date Time Source
MMAS TAF 2020/10/29 18:43 UTC NOAA

TAF MMAS 291639Z 2918/3018 05012KT P6SM SKC
FM300300 06008KT P6SM SKC
TEMPO 3011/3015 SCT015
FM301600 07010KT P6SM SKC

Example: see airport list